createdAt,value
2017-11-03T00:00:02.592Z,0.00
2017-11-03T00:01:02.643Z,0.00
2017-11-03T00:02:02.659Z,0.00
2017-11-03T00:03:02.689Z,0.00
2017-11-03T00:04:02.726Z,0.00
2017-11-03T00:05:02.757Z,0.00
2017-11-03T00:06:02.788Z,0.00
2017-11-03T00:07:02.820Z,0.00
2017-11-03T00:08:02.854Z,0.00
2017-11-03T00:09:02.887Z,0.00
2017-11-03T00:10:02.918Z,0.00
2017-11-03T00:11:02.951Z,0.00
2017-11-03T00:12:02.983Z,0.00
2017-11-03T00:13:03.025Z,0.00
2017-11-03T00:14:03.048Z,0.00
2017-11-03T00:15:03.087Z,0.00
2017-11-03T00:16:03.113Z,0.00
2017-11-03T00:17:03.147Z,0.00
2017-11-03T00:18:03.179Z,0.00
2017-11-03T00:19:03.225Z,0.00
2017-11-03T00:20:03.248Z,0.00
2017-11-03T00:21:03.276Z,0.00
2017-11-03T00:22:03.308Z,0.00
2017-11-03T00:23:03.340Z,0.00
2017-11-03T00:24:03.374Z,0.00
2017-11-03T00:25:03.405Z,0.00
2017-11-03T00:26:03.438Z,0.00
2017-11-03T00:27:03.469Z,0.00
2017-11-03T00:28:03.502Z,0.00
2017-11-03T00:29:03.536Z,0.00
2017-11-03T00:30:03.569Z,0.00
2017-11-03T00:31:03.599Z,0.00
2017-11-03T00:32:03.631Z,0.00
2017-11-03T00:33:03.664Z,0.00
2017-11-03T00:34:03.695Z,0.00
2017-11-03T00:35:03.778Z,0.00
2017-11-03T00:36:03.761Z,0.00
2017-11-03T00:37:03.793Z,0.00
2017-11-03T00:38:03.824Z,0.00
2017-11-03T00:39:03.857Z,0.00
2017-11-03T00:40:03.889Z,0.00
2017-11-03T00:41:03.929Z,0.00
2017-11-03T00:42:03.954Z,0.00
2017-11-03T00:43:03.986Z,0.00
2017-11-03T00:44:04.019Z,0.00
2017-11-03T00:45:04.052Z,0.00
2017-11-03T00:46:04.085Z,0.00
2017-11-03T00:47:04.115Z,0.00
2017-11-03T00:48:04.147Z,0.00
2017-11-03T00:49:04.185Z,0.00
2017-11-03T00:50:04.212Z,0.00
2017-11-03T00:51:04.244Z,0.00
2017-11-03T00:52:04.280Z,0.00
2017-11-03T00:53:04.317Z,0.00
2017-11-03T00:54:04.340Z,0.00
2017-11-03T00:55:04.374Z,0.00
2017-11-03T00:56:04.408Z,0.00
2017-11-03T00:57:04.438Z,0.00
2017-11-03T00:58:04.469Z,0.00
2017-11-03T00:59:04.504Z,0.00
2017-11-03T01:00:04.538Z,0.00
2017-11-03T01:01:04.568Z,0.00
2017-11-03T01:02:04.603Z,0.00
2017-11-03T01:03:04.633Z,0.00
2017-11-03T01:04:04.671Z,0.00
2017-11-03T01:05:04.698Z,0.00
2017-11-03T01:06:04.729Z,0.00
2017-11-03T01:07:04.761Z,0.00
2017-11-03T01:08:04.794Z,0.00
2017-11-03T01:09:04.827Z,0.00
2017-11-03T01:10:04.856Z,0.00
2017-11-03T01:11:04.890Z,0.00
2017-11-03T01:12:04.923Z,0.00
2017-11-03T01:13:04.955Z,0.00
2017-11-03T01:14:04.987Z,0.00
2017-11-03T01:15:05.020Z,0.00
2017-11-03T01:16:05.051Z,0.00
2017-11-03T01:17:05.085Z,0.00
2017-11-03T01:18:05.116Z,0.00
2017-11-03T01:19:05.149Z,0.00
2017-11-03T01:20:05.181Z,0.00
2017-11-03T01:21:05.213Z,0.00
2017-11-03T01:22:05.245Z,0.00
2017-11-03T01:23:05.277Z,0.00
2017-11-03T01:24:05.310Z,0.00
2017-11-03T01:25:05.343Z,0.00
2017-11-03T01:26:05.374Z,0.00
2017-11-03T01:27:05.406Z,0.00
2017-11-03T01:28:05.439Z,0.00
2017-11-03T01:29:05.472Z,0.00
2017-11-03T01:30:05.502Z,0.00
2017-11-03T01:31:05.538Z,0.00
2017-11-03T01:32:05.618Z,0.00
2017-11-03T01:33:05.600Z,0.00
2017-11-03T01:34:05.642Z,0.00
2017-11-03T01:35:05.665Z,0.00
2017-11-03T01:36:05.698Z,0.00
2017-11-03T01:37:05.729Z,0.00
2017-11-03T01:38:05.761Z,0.00
2017-11-03T01:39:05.794Z,0.00
2017-11-03T01:40:05.826Z,0.00
2017-11-03T01:41:05.860Z,0.00
2017-11-03T01:42:05.890Z,0.00
2017-11-03T01:43:05.922Z,0.00
2017-11-03T01:44:05.953Z,0.00
2017-11-03T01:45:05.987Z,0.00
2017-11-03T01:46:06.018Z,0.00
2017-11-03T01:47:06.063Z,0.00
2017-11-03T01:48:06.085Z,0.00
2017-11-03T01:49:06.116Z,0.00
2017-11-03T01:50:06.147Z,0.00
2017-11-03T01:51:06.180Z,0.00
2017-11-03T01:52:06.212Z,0.00
2017-11-03T01:53:06.244Z,0.00
2017-11-03T01:54:06.277Z,0.00
2017-11-03T01:55:06.309Z,0.00
2017-11-03T01:56:06.345Z,0.00
2017-11-03T01:57:06.374Z,0.00
2017-11-03T01:58:06.405Z,0.00
2017-11-03T01:59:06.439Z,0.00
2017-11-03T02:00:06.470Z,0.00
2017-11-03T02:01:06.503Z,0.00
2017-11-03T02:02:06.535Z,0.00
2017-11-03T02:03:06.567Z,0.00
2017-11-03T02:04:06.599Z,0.00
2017-11-03T02:05:06.632Z,0.00
2017-11-03T02:06:06.663Z,0.00
2017-11-03T02:07:06.696Z,0.00
2017-11-03T02:08:06.779Z,0.00
2017-11-03T02:09:06.760Z,0.00
2017-11-03T02:10:06.796Z,0.00
2017-11-03T02:11:06.824Z,0.00
2017-11-03T02:12:06.857Z,0.00
2017-11-03T02:13:06.889Z,0.00
2017-11-03T02:14:06.934Z,0.00
2017-11-03T02:15:06.953Z,0.00
2017-11-03T02:16:06.985Z,0.00
2017-11-03T02:17:07.018Z,0.00
2017-11-03T02:18:07.049Z,0.00
2017-11-03T02:19:07.081Z,0.00
2017-11-03T02:20:07.122Z,0.00
2017-11-03T02:21:07.146Z,0.00
2017-11-03T02:22:07.177Z,0.00
2017-11-03T02:23:07.260Z,0.00
2017-11-03T02:24:07.243Z,0.00
2017-11-03T02:25:07.274Z,0.00
2017-11-03T02:26:07.306Z,0.00
2017-11-03T02:27:07.339Z,0.00
2017-11-03T02:28:07.371Z,0.00
2017-11-03T02:29:07.406Z,0.00
2017-11-03T02:30:07.436Z,0.00
2017-11-03T02:31:07.467Z,0.00
2017-11-03T02:32:07.500Z,0.00
2017-11-03T02:33:07.582Z,0.00
2017-11-03T02:34:07.563Z,0.00
2017-11-03T02:35:07.597Z,0.00
2017-11-03T02:36:07.628Z,0.00
2017-11-03T02:37:07.660Z,0.00
2017-11-03T02:38:07.692Z,0.00
2017-11-03T02:39:07.724Z,0.00
2017-11-03T02:40:07.761Z,0.00
2017-11-03T02:41:07.789Z,0.00
2017-11-03T02:42:07.820Z,0.00
2017-11-03T02:43:07.856Z,0.00
2017-11-03T02:44:07.883Z,0.00
2017-11-03T02:45:07.918Z,0.00
2017-11-03T02:46:07.949Z,0.00
2017-11-03T02:47:07.980Z,0.00
2017-11-03T02:48:08.013Z,0.00
2017-11-03T02:49:08.045Z,0.00
2017-11-03T02:50:08.077Z,0.00
2017-11-03T02:51:08.109Z,0.00
2017-11-03T02:52:08.142Z,0.00
2017-11-03T02:53:08.173Z,0.00
2017-11-03T02:54:08.205Z,0.00
2017-11-03T02:55:08.238Z,0.00
2017-11-03T02:56:08.269Z,0.00
2017-11-03T02:57:08.302Z,0.00
2017-11-03T02:58:08.333Z,0.00
2017-11-03T02:59:08.366Z,0.00
2017-11-03T03:00:08.398Z,0.00
2017-11-03T03:01:08.431Z,0.00
2017-11-03T03:02:08.462Z,0.00
2017-11-03T03:03:08.493Z,0.00
2017-11-03T03:04:08.526Z,0.00
2017-11-03T03:05:08.559Z,0.00
2017-11-03T03:06:08.590Z,0.00
2017-11-03T03:07:08.622Z,0.00
2017-11-03T03:08:08.656Z,0.00
2017-11-03T03:09:08.737Z,0.00
2017-11-03T03:10:08.718Z,0.00
2017-11-03T03:11:08.750Z,0.00
2017-11-03T03:12:08.783Z,0.00
2017-11-03T03:13:08.817Z,0.00
2017-11-03T03:14:08.847Z,0.00
2017-11-03T03:15:08.880Z,0.00
2017-11-03T03:16:08.912Z,0.00
2017-11-03T03:17:08.945Z,0.00
2017-11-03T03:18:08.975Z,0.00
2017-11-03T03:19:09.009Z,0.00
2017-11-03T03:20:09.041Z,0.00
2017-11-03T03:21:09.072Z,0.00
2017-11-03T03:22:09.105Z,0.00
2017-11-03T03:23:09.137Z,0.00
2017-11-03T03:24:09.170Z,0.00
2017-11-03T03:25:09.202Z,0.00
2017-11-03T03:26:09.234Z,0.00
2017-11-03T03:27:09.266Z,0.00
2017-11-03T03:28:09.298Z,0.00
2017-11-03T03:29:09.332Z,0.00
2017-11-03T03:30:09.362Z,0.00
2017-11-03T03:31:09.394Z,0.00
2017-11-03T03:32:09.426Z,0.00
2017-11-03T03:33:09.459Z,0.00
2017-11-03T03:34:09.490Z,0.00
2017-11-03T03:35:09.524Z,0.00
2017-11-03T03:36:09.555Z,0.00
2017-11-03T03:37:09.588Z,0.00
2017-11-03T03:38:09.620Z,0.00
2017-11-03T03:39:09.651Z,0.00
2017-11-03T03:40:09.685Z,0.00
2017-11-03T03:41:09.717Z,0.00
2017-11-03T03:42:09.748Z,0.00
2017-11-03T03:43:09.781Z,0.00
2017-11-03T03:44:09.811Z,0.00
2017-11-03T03:45:09.845Z,0.00
2017-11-03T03:46:09.876Z,0.00
2017-11-03T03:47:09.908Z,0.00
2017-11-03T03:48:09.942Z,0.00
2017-11-03T03:49:09.973Z,0.00
2017-11-03T03:50:10.005Z,0.00
2017-11-03T03:51:10.036Z,0.00
2017-11-03T03:52:10.070Z,0.00
2017-11-03T03:53:10.101Z,0.00
2017-11-03T03:54:10.133Z,0.00
2017-11-03T03:55:10.166Z,0.00
2017-11-03T03:56:10.197Z,0.00
2017-11-03T03:57:10.231Z,0.00
2017-11-03T03:58:10.262Z,0.00
2017-11-03T03:59:10.295Z,0.00
2017-11-03T04:00:10.377Z,0.00
2017-11-03T04:01:10.359Z,0.00
2017-11-03T04:02:10.391Z,0.00
2017-11-03T04:03:10.423Z,0.00
2017-11-03T04:04:10.453Z,0.00
2017-11-03T04:05:10.487Z,0.00
2017-11-03T04:06:10.518Z,0.00
2017-11-03T04:07:10.550Z,0.00
2017-11-03T04:08:10.583Z,0.00
2017-11-03T04:09:10.616Z,0.00
2017-11-03T04:10:10.647Z,0.00
2017-11-03T04:11:10.679Z,0.00
2017-11-03T04:12:10.711Z,0.00
2017-11-03T04:13:10.744Z,0.00
2017-11-03T04:14:10.774Z,0.00
2017-11-03T04:15:10.808Z,0.00
2017-11-03T04:16:10.840Z,0.00
2017-11-03T04:17:10.872Z,0.00
2017-11-03T04:18:10.903Z,0.00
2017-11-03T04:19:10.936Z,0.00
2017-11-03T04:20:10.969Z,0.00
2017-11-03T04:21:11.000Z,0.00
2017-11-03T04:22:11.030Z,0.00
2017-11-03T04:23:11.064Z,0.00
2017-11-03T04:24:11.096Z,0.00
2017-11-03T04:25:11.127Z,0.00
2017-11-03T04:26:11.159Z,0.00
2017-11-03T04:27:11.190Z,0.00
2017-11-03T04:28:11.224Z,0.00
2017-11-03T04:29:11.271Z,0.00
2017-11-03T04:30:11.287Z,0.00
2017-11-03T04:31:11.318Z,0.00
2017-11-03T04:32:11.353Z,0.00
2017-11-03T04:33:11.386Z,0.00
2017-11-03T04:34:11.416Z,0.00
2017-11-03T04:35:11.448Z,0.00
2017-11-03T04:36:11.481Z,0.00
2017-11-03T04:37:11.514Z,0.00
2017-11-03T04:38:11.544Z,0.00
2017-11-03T04:39:11.577Z,0.00
2017-11-03T04:40:11.608Z,0.00
2017-11-03T04:41:11.641Z,0.00
2017-11-03T04:42:11.671Z,0.00
2017-11-03T04:43:11.704Z,0.00
2017-11-03T04:44:11.738Z,0.00
2017-11-03T04:45:11.767Z,0.00
2017-11-03T04:46:11.799Z,0.00
2017-11-03T04:47:11.832Z,0.00
2017-11-03T04:48:11.864Z,0.00
2017-11-03T04:49:11.897Z,0.00
2017-11-03T04:50:11.934Z,0.00
2017-11-03T04:51:11.960Z,0.00
2017-11-03T04:52:11.991Z,0.00
2017-11-03T04:53:12.026Z,0.00
2017-11-03T04:54:12.056Z,0.00
2017-11-03T04:55:12.087Z,0.00
2017-11-03T04:56:12.119Z,0.00
2017-11-03T04:57:12.154Z,0.00
2017-11-03T04:58:12.184Z,0.00
2017-11-03T04:59:12.216Z,0.00
2017-11-03T05:00:12.249Z,0.00
2017-11-03T05:01:12.281Z,0.00
2017-11-03T05:02:12.312Z,0.00
2017-11-03T05:03:12.345Z,0.00
2017-11-03T05:04:12.377Z,0.00
2017-11-03T05:05:12.410Z,0.00
2017-11-03T05:06:12.441Z,0.00
2017-11-03T05:07:12.474Z,0.00
2017-11-03T05:08:12.505Z,0.00
2017-11-03T05:09:12.538Z,0.00
2017-11-03T05:10:12.570Z,0.00
2017-11-03T05:11:12.602Z,0.00
2017-11-03T05:12:12.683Z,0.00
2017-11-03T05:13:12.667Z,0.00
2017-11-03T05:14:12.698Z,0.00
2017-11-03T05:15:12.730Z,0.00
2017-11-03T05:16:12.762Z,0.00
2017-11-03T05:17:12.795Z,0.00
2017-11-03T05:18:12.827Z,0.00
2017-11-03T05:19:12.859Z,0.00
2017-11-03T05:20:12.891Z,0.00
2017-11-03T05:21:12.929Z,0.00
2017-11-03T05:22:12.959Z,0.00
2017-11-03T05:23:12.987Z,0.00
2017-11-03T05:24:13.020Z,0.00
2017-11-03T05:25:13.051Z,0.00
2017-11-03T05:26:13.082Z,0.00
2017-11-03T05:27:13.116Z,0.00
2017-11-03T05:28:13.147Z,0.00
2017-11-03T05:29:13.180Z,0.00
2017-11-03T05:30:13.209Z,0.00
2017-11-03T05:31:13.244Z,0.00
2017-11-03T05:32:13.274Z,0.00
2017-11-03T05:33:13.307Z,0.00
2017-11-03T05:34:13.339Z,0.00
2017-11-03T05:35:13.370Z,0.00
2017-11-03T05:36:13.403Z,0.00
2017-11-03T05:37:13.435Z,0.00
2017-11-03T05:38:13.467Z,0.00
2017-11-03T05:39:13.499Z,0.00
2017-11-03T05:40:13.531Z,0.00
2017-11-03T05:41:13.564Z,0.00
2017-11-03T05:42:13.596Z,0.00
2017-11-03T05:43:13.626Z,0.00
2017-11-03T05:44:13.660Z,0.00
2017-11-03T05:45:13.692Z,0.00
2017-11-03T05:46:13.724Z,0.00
2017-11-03T05:47:13.760Z,0.00
2017-11-03T05:48:13.789Z,0.00
2017-11-03T05:49:13.820Z,0.00
2017-11-03T05:50:13.852Z,4.00
2017-11-03T05:51:13.884Z,0.00
2017-11-03T05:52:13.916Z,4.00
2017-11-03T05:53:13.949Z,4.00
2017-11-03T05:54:13.981Z,4.00
2017-11-03T05:55:14.013Z,4.00
2017-11-03T05:56:14.046Z,8.00
2017-11-03T05:57:14.077Z,8.00
2017-11-03T05:58:14.108Z,8.00
2017-11-03T05:59:14.140Z,8.00
2017-11-03T06:00:14.174Z,12.00
2017-11-03T06:01:14.209Z,12.00
2017-11-03T06:02:14.236Z,16.00
2017-11-03T06:03:14.269Z,24.00
2017-11-03T06:04:14.302Z,24.00
2017-11-03T06:05:14.335Z,32.00
2017-11-03T06:06:14.366Z,40.00
2017-11-03T06:07:14.399Z,44.00
2017-11-03T06:08:14.431Z,44.00
2017-11-03T06:09:14.463Z,52.00
2017-11-03T06:10:14.494Z,56.00
2017-11-03T06:11:14.527Z,60.00
2017-11-03T06:12:14.557Z,72.00
2017-11-03T06:13:14.592Z,80.00
2017-11-03T06:14:14.621Z,88.00
2017-11-03T06:15:14.655Z,96.00
2017-11-03T06:16:14.688Z,120.00
2017-11-03T06:17:14.739Z,148.00
2017-11-03T06:18:14.751Z,172.00
2017-11-03T06:19:14.783Z,200.00
2017-11-03T06:20:14.816Z,228.00
2017-11-03T06:21:14.849Z,248.00
2017-11-03T06:22:14.880Z,264.00
2017-11-03T06:23:14.912Z,284.00
2017-11-03T06:24:14.945Z,296.00
2017-11-03T06:25:14.979Z,316.00
2017-11-03T06:26:15.009Z,336.00
2017-11-03T06:27:15.043Z,348.00
2017-11-03T06:28:15.073Z,360.00
2017-11-03T06:29:15.104Z,372.00
2017-11-03T06:30:15.136Z,384.00
2017-11-03T06:31:15.168Z,392.00
2017-11-03T06:32:15.205Z,392.00
2017-11-03T06:33:15.241Z,404.00
2017-11-03T06:34:15.264Z,416.00
2017-11-03T06:35:16.207Z,440.00
2017-11-03T06:36:15.329Z,472.00
2017-11-03T06:37:15.361Z,512.00
2017-11-03T06:38:15.393Z,556.00
2017-11-03T06:39:15.425Z,596.00
2017-11-03T06:40:15.458Z,640.00
2017-11-03T06:41:15.490Z,692.00
2017-11-03T06:42:15.573Z,736.00
2017-11-03T06:43:15.554Z,780.00
2017-11-03T06:44:15.586Z,832.00
2017-11-03T06:45:15.618Z,892.00
2017-11-03T06:46:15.649Z,960.00
2017-11-03T06:47:15.695Z,1036.00
2017-11-03T06:48:15.715Z,1128.00
2017-11-03T06:49:15.746Z,1220.00
2017-11-03T06:50:15.782Z,1308.00
2017-11-03T06:51:15.810Z,1384.00
2017-11-03T06:52:15.843Z,1436.00
2017-11-03T06:53:15.880Z,1504.00
2017-11-03T06:54:15.940Z,1572.00
2017-11-03T06:55:15.941Z,1640.00
2017-11-03T06:56:15.971Z,1708.00
2017-11-03T06:57:16.004Z,1792.00
2017-11-03T06:58:16.036Z,1880.00
2017-11-03T06:59:16.068Z,1968.00
2017-11-03T07:00:16.151Z,2032.00
2017-11-03T07:01:16.134Z,2112.00
2017-11-03T07:02:16.165Z,2200.00
2017-11-03T07:03:16.198Z,2256.00
2017-11-03T07:04:16.229Z,2284.00
2017-11-03T07:05:16.262Z,2320.00
2017-11-03T07:06:16.294Z,2332.00
2017-11-03T07:07:16.326Z,2360.00
2017-11-03T07:08:16.358Z,2440.00
2017-11-03T07:09:16.390Z,2580.00
2017-11-03T07:10:16.424Z,2748.00
2017-11-03T07:11:16.455Z,2912.00
2017-11-03T07:12:16.487Z,3080.00
2017-11-03T07:13:16.523Z,3208.00
2017-11-03T07:14:16.551Z,3276.00
2017-11-03T07:15:16.584Z,3328.00
2017-11-03T07:16:16.617Z,3232.00
2017-11-03T07:17:16.648Z,3152.00
2017-11-03T07:18:16.680Z,3248.00
2017-11-03T07:19:16.717Z,3500.00
2017-11-03T07:20:16.746Z,4172.00
2017-11-03T07:21:16.780Z,4700.00
2017-11-03T07:22:16.811Z,4800.00
2017-11-03T07:23:16.845Z,5352.00
2017-11-03T07:24:16.880Z,4516.00
2017-11-03T07:25:16.909Z,4380.00
2017-11-03T07:26:17.082Z,4324.00
2017-11-03T07:27:16.975Z,4448.00
2017-11-03T07:28:17.011Z,4728.00
2017-11-03T07:29:17.040Z,5276.00
2017-11-03T07:30:17.075Z,5788.00
2017-11-03T07:31:17.106Z,6656.00
2017-11-03T07:32:17.138Z,6980.00
2017-11-03T07:33:17.215Z,6620.00
2017-11-03T07:34:17.204Z,6740.00
2017-11-03T07:35:17.283Z,7080.00
2017-11-03T07:36:17.270Z,7040.00
2017-11-03T07:37:17.304Z,6460.00
2017-11-03T07:38:17.335Z,6564.00
2017-11-03T07:39:17.394Z,6944.00
2017-11-03T07:40:17.402Z,8444.00
2017-11-03T07:41:17.436Z,8824.00
2017-11-03T07:42:17.469Z,8000.00
2017-11-03T07:43:17.501Z,6528.00
2017-11-03T07:44:17.537Z,8760.00
2017-11-03T07:45:17.570Z,6456.00
2017-11-03T07:46:17.602Z,5684.00
2017-11-03T07:47:17.637Z,5736.00
2017-11-03T07:48:17.672Z,5884.00
2017-11-03T07:49:17.725Z,5364.00
2017-11-03T07:50:17.739Z,5428.00
2017-11-03T07:51:17.773Z,5584.00
2017-11-03T07:52:17.808Z,5836.00
2017-11-03T07:53:17.842Z,6992.00
2017-11-03T07:54:17.875Z,6560.00
2017-11-03T07:55:17.910Z,6480.00
2017-11-03T07:56:17.947Z,6484.00
2017-11-03T07:57:17.979Z,6788.00
2017-11-03T07:58:18.011Z,7288.00
2017-11-03T07:59:18.047Z,8256.00
2017-11-03T08:00:18.079Z,8636.00
2017-11-03T08:01:18.115Z,9480.00
2017-11-03T08:02:18.149Z,7928.00
2017-11-03T08:03:18.183Z,7288.00
2017-11-03T08:04:18.217Z,7200.00
2017-11-03T08:05:18.253Z,7252.00
2017-11-03T08:06:18.287Z,7288.00
2017-11-03T08:07:18.321Z,7420.00
2017-11-03T08:08:18.355Z,7716.00
2017-11-03T08:09:18.391Z,8008.00
2017-11-03T08:10:18.424Z,8220.00
2017-11-03T08:11:18.459Z,8308.00
2017-11-03T08:12:18.493Z,8320.00
2017-11-03T08:13:18.529Z,8508.00
2017-11-03T08:14:18.562Z,8676.00
2017-11-03T08:15:18.599Z,8756.00
2017-11-03T08:16:18.638Z,8796.00
2017-11-03T08:17:18.667Z,8708.00
2017-11-03T08:18:18.701Z,8620.00
2017-11-03T08:19:18.734Z,8640.00
2017-11-03T08:20:18.770Z,8856.00
2017-11-03T08:21:18.805Z,9304.00
2017-11-03T08:22:18.840Z,9596.00
2017-11-03T08:23:18.875Z,9852.00
2017-11-03T08:24:18.910Z,10456.00
2017-11-03T08:25:18.945Z,11220.00
2017-11-03T08:26:18.980Z,11660.00
2017-11-03T08:27:19.014Z,13480.00
2017-11-03T08:28:19.056Z,12580.00
2017-11-03T08:29:19.084Z,12560.00
2017-11-03T08:30:19.119Z,11564.00
2017-11-03T08:31:19.154Z,10720.00
2017-11-03T08:32:19.189Z,10156.00
2017-11-03T08:33:19.226Z,9924.00
2017-11-03T08:34:19.260Z,10424.00
2017-11-03T08:35:19.296Z,10848.00
2017-11-03T08:36:19.331Z,13888.00
2017-11-03T08:37:19.367Z,15296.00
2017-11-03T08:38:19.402Z,12312.00
2017-11-03T08:39:19.438Z,12408.00
2017-11-03T08:40:19.488Z,12836.00
2017-11-03T08:41:19.510Z,13660.00
2017-11-03T08:42:19.546Z,13240.00
2017-11-03T08:43:19.580Z,13556.00
2017-11-03T08:44:19.618Z,13880.00
2017-11-03T08:45:19.653Z,14604.00
2017-11-03T08:46:19.690Z,17792.00
2017-11-03T08:47:19.727Z,33856.00
2017-11-03T08:48:19.764Z,24256.00
2017-11-03T08:49:19.799Z,17056.00
2017-11-03T08:50:19.854Z,17472.00
2017-11-03T08:51:19.873Z,23424.00
2017-11-03T08:52:19.910Z,28704.00
2017-11-03T08:53:19.947Z,25376.00
2017-11-03T08:54:19.985Z,18336.00
2017-11-03T08:55:20.024Z,32128.00
2017-11-03T08:56:20.063Z,28800.00
2017-11-03T08:57:20.105Z,24864.00
2017-11-03T08:58:20.138Z,29216.00
2017-11-03T08:59:20.181Z,26464.00
2017-11-03T09:00:20.245Z,24416.00
2017-11-03T09:01:20.255Z,23616.00
2017-11-03T09:02:20.294Z,31520.00
2017-11-03T09:03:20.334Z,26784.00
2017-11-03T09:04:20.374Z,30176.00
2017-11-03T09:05:20.414Z,23776.00
2017-11-03T09:06:20.454Z,18784.00
2017-11-03T09:07:20.493Z,19328.00
2017-11-03T09:08:20.583Z,25504.00
2017-11-03T09:09:20.574Z,24288.00
2017-11-03T09:10:20.614Z,44704.00
2017-11-03T09:11:20.654Z,23456.00
2017-11-03T09:12:20.698Z,25216.00
2017-11-03T09:13:20.737Z,31104.00
2017-11-03T09:14:20.783Z,32224.00
2017-11-03T09:15:20.825Z,46240.00
2017-11-03T09:16:20.858Z,40768.00
2017-11-03T09:17:20.899Z,19104.00
2017-11-03T09:18:20.943Z,15300.00
2017-11-03T09:19:21.135Z,13912.00
2017-11-03T09:20:21.024Z,14112.00
2017-11-03T09:21:21.094Z,14916.00
2017-11-03T09:22:21.107Z,14900.00
2017-11-03T09:23:21.194Z,14764.00
2017-11-03T09:24:21.189Z,17088.00
2017-11-03T09:25:21.272Z,26240.00
2017-11-03T09:26:21.272Z,16052.00
2017-11-03T09:27:21.313Z,15128.00
2017-11-03T09:28:21.354Z,16352.00
2017-11-03T09:29:21.395Z,17600.00
2017-11-03T09:30:21.435Z,19008.00
2017-11-03T09:31:21.476Z,34016.00
2017-11-03T09:32:21.517Z,18048.00
2017-11-03T09:33:21.559Z,25280.00
2017-11-03T09:34:21.598Z,34528.00
2017-11-03T09:35:21.640Z,33632.00
2017-11-03T09:36:21.681Z,33632.00
2017-11-03T09:37:21.724Z,36128.00
2017-11-03T09:38:21.763Z,48128.00
2017-11-03T09:39:21.808Z,57536.00
2017-11-03T09:40:21.849Z,57152.00
2017-11-03T09:41:21.891Z,56352.00
2017-11-03T09:42:21.934Z,58240.00
2017-11-03T09:43:21.978Z,58784.00
2017-11-03T09:44:22.021Z,58432.00
2017-11-03T09:45:22.081Z,58784.00
2017-11-03T09:46:22.112Z,60256.00
2017-11-03T09:47:22.157Z,58624.00
2017-11-03T09:48:22.204Z,58528.00
2017-11-03T09:49:22.246Z,59104.00
2017-11-03T09:50:22.295Z,63200.00
2017-11-03T09:51:22.337Z,61536.00
2017-11-03T09:52:22.383Z,62592.00
2017-11-03T09:53:22.428Z,65440.00
2017-11-03T09:54:22.526Z,68832.00
2017-11-03T09:55:22.523Z,23648.00
2017-11-03T09:56:22.568Z,15984.00
2017-11-03T09:57:22.617Z,16176.00
2017-11-03T09:58:22.665Z,36736.00
2017-11-03T09:59:23.400Z,66144.00
2017-11-03T10:00:22.756Z,67488.00
2017-11-03T10:01:22.805Z,67360.00
2017-11-03T10:02:22.849Z,65984.00
2017-11-03T10:03:22.896Z,67712.00
2017-11-03T10:04:22.943Z,67776.00
2017-11-03T10:05:22.993Z,66336.00
2017-11-03T10:06:23.037Z,68736.00
2017-11-03T10:07:23.085Z,69024.00
2017-11-03T10:08:23.133Z,66688.00
2017-11-03T10:09:23.181Z,66016.00
2017-11-03T10:10:23.228Z,67008.00
2017-11-03T10:11:23.276Z,68832.00
2017-11-03T10:12:23.325Z,69408.00
2017-11-03T10:13:23.374Z,70656.00
2017-11-03T10:14:23.421Z,73664.00
2017-11-03T10:15:23.496Z,72736.00
2017-11-03T10:16:23.519Z,70304.00
2017-11-03T10:17:23.568Z,69024.00
2017-11-03T10:18:23.616Z,62272.00
2017-11-03T10:19:23.666Z,70752.00
2017-11-03T10:20:23.724Z,71808.00
2017-11-03T10:21:23.770Z,71008.00
2017-11-03T10:22:23.818Z,71072.00
2017-11-03T10:23:23.864Z,71776.00
2017-11-03T10:24:23.914Z,68800.00
2017-11-03T10:25:24.013Z,72864.00
2017-11-03T10:26:24.013Z,75488.00
2017-11-03T10:27:24.064Z,72000.00
2017-11-03T10:28:24.111Z,73280.00
2017-11-03T10:29:24.162Z,73216.00
2017-11-03T10:30:24.211Z,73632.00
2017-11-03T10:31:24.265Z,75136.00
2017-11-03T10:32:24.312Z,74720.00
2017-11-03T10:33:24.366Z,72032.00
2017-11-03T10:34:24.412Z,72128.00
2017-11-03T10:35:24.514Z,76288.00
2017-11-03T10:36:24.513Z,75840.00
2017-11-03T10:37:24.564Z,75456.00
2017-11-03T10:38:24.613Z,72896.00
2017-11-03T10:39:24.665Z,74112.00
2017-11-03T10:40:24.718Z,76576.00
2017-11-03T10:41:24.768Z,77760.00
2017-11-03T10:42:24.817Z,76256.00
2017-11-03T10:43:24.869Z,77888.00
2017-11-03T10:44:24.922Z,76384.00
2017-11-03T10:45:24.971Z,75104.00
2017-11-03T10:46:25.021Z,74656.00
2017-11-03T10:47:25.073Z,60384.00
2017-11-03T10:48:25.127Z,76224.00
2017-11-03T10:49:25.178Z,75232.00
2017-11-03T10:50:25.228Z,74272.00
2017-11-03T10:51:25.430Z,71552.00
2017-11-03T10:52:25.332Z,75200.00
2017-11-03T10:53:25.383Z,66368.00
2017-11-03T10:54:25.437Z,68608.00
2017-11-03T10:55:25.486Z,66240.00
2017-11-03T10:56:25.589Z,64448.00
2017-11-03T10:57:25.590Z,26784.00
2017-11-03T10:58:25.641Z,43488.00
2017-11-03T10:59:25.693Z,21568.00
2017-11-03T11:00:25.746Z,21472.00
2017-11-03T11:01:25.801Z,21856.00
2017-11-03T11:02:25.846Z,48736.00
2017-11-03T11:03:25.899Z,69472.00
2017-11-03T11:04:25.963Z,35072.00
2017-11-03T11:05:25.999Z,20224.00
2017-11-03T11:06:26.048Z,46624.00
2017-11-03T11:07:26.197Z,30880.00
2017-11-03T11:08:26.148Z,20896.00
2017-11-03T11:09:26.197Z,57120.00
2017-11-03T11:10:26.245Z,74496.00
2017-11-03T11:11:26.294Z,77184.00
2017-11-03T11:12:26.342Z,46272.00
2017-11-03T11:13:26.392Z,72160.00
2017-11-03T11:14:26.445Z,75488.00
2017-11-03T11:15:26.486Z,77824.00
2017-11-03T11:16:26.535Z,77216.00
2017-11-03T11:17:26.585Z,68352.00
2017-11-03T11:18:26.633Z,69856.00
2017-11-03T11:19:26.685Z,72672.00
2017-11-03T11:20:26.734Z,72896.00
2017-11-03T11:21:26.781Z,69952.00
2017-11-03T11:22:26.829Z,72384.00
2017-11-03T11:23:26.880Z,72672.00
2017-11-03T11:24:26.930Z,75936.00
2017-11-03T11:25:26.980Z,76096.00
2017-11-03T11:26:27.030Z,19456.00
2017-11-03T11:27:27.080Z,17984.00
2017-11-03T11:28:27.130Z,17388.00
2017-11-03T11:29:27.183Z,34336.00
2017-11-03T11:30:27.231Z,74336.00
2017-11-03T11:31:27.281Z,72224.00
2017-11-03T11:32:27.332Z,57984.00
2017-11-03T11:33:27.380Z,74688.00
2017-11-03T11:34:27.430Z,74112.00
2017-11-03T11:35:27.480Z,61952.00
2017-11-03T11:36:27.530Z,20224.00
2017-11-03T11:37:27.585Z,73984.00
2017-11-03T11:38:27.628Z,77440.00
2017-11-03T11:39:27.677Z,77760.00
2017-11-03T11:40:27.730Z,75168.00
2017-11-03T11:41:27.778Z,18816.00
2017-11-03T11:42:27.828Z,19360.00
2017-11-03T11:43:27.878Z,18016.00
2017-11-03T11:44:27.928Z,21024.00
2017-11-03T11:45:27.978Z,21504.00
2017-11-03T11:46:28.028Z,20256.00
2017-11-03T11:47:28.077Z,20384.00
2017-11-03T11:48:28.125Z,24640.00
2017-11-03T11:49:28.175Z,18112.00
2017-11-03T11:50:28.223Z,15968.00
2017-11-03T11:51:28.272Z,13140.00
2017-11-03T11:52:28.324Z,12220.00
2017-11-03T11:53:28.368Z,14148.00
2017-11-03T11:54:28.415Z,32704.00
2017-11-03T11:55:28.463Z,81344.00
2017-11-03T11:56:28.509Z,56512.00
2017-11-03T11:57:28.571Z,77984.00
2017-11-03T11:58:28.603Z,25056.00
2017-11-03T11:59:28.649Z,24544.00
2017-11-03T12:00:28.697Z,22048.00
2017-11-03T12:01:28.744Z,75200.00
2017-11-03T12:02:28.791Z,79744.00
2017-11-03T12:03:28.838Z,75936.00
2017-11-03T12:04:28.891Z,75616.00
2017-11-03T12:05:28.932Z,78464.00
2017-11-03T12:06:28.978Z,74848.00
2017-11-03T12:07:29.030Z,68864.00
2017-11-03T12:08:29.073Z,74304.00
2017-11-03T12:09:29.123Z,70272.00
2017-11-03T12:10:29.169Z,73664.00
2017-11-03T12:11:29.219Z,75552.00
2017-11-03T12:12:29.267Z,76000.00
2017-11-03T12:13:29.316Z,75936.00
2017-11-03T12:14:29.364Z,74336.00
2017-11-03T12:15:29.413Z,71456.00
2017-11-03T12:16:29.464Z,68480.00
2017-11-03T12:17:29.530Z,69568.00
2017-11-03T12:18:29.563Z,73152.00
2017-11-03T12:19:29.612Z,73760.00
2017-11-03T12:20:29.663Z,75840.00
2017-11-03T12:21:29.712Z,78144.00
2017-11-03T12:22:29.762Z,78048.00
2017-11-03T12:23:29.822Z,78976.00
2017-11-03T12:24:29.866Z,79232.00
2017-11-03T12:25:29.918Z,79776.00
2017-11-03T12:26:29.967Z,81280.00
2017-11-03T12:27:30.017Z,81952.00
2017-11-03T12:28:30.070Z,80288.00
2017-11-03T12:29:30.121Z,80832.00
2017-11-03T12:30:30.171Z,81184.00
2017-11-03T12:31:30.224Z,80256.00
2017-11-03T12:32:30.277Z,79616.00